Terminal Aerodrome Forecast
Issued by NWS Wakefield, VA

Home | Current Version | Previous Version | Text Only | Print | Product List | Glossary On
Versions: 1 2 3 4 5 6 7 8 9 10 11 12 13 14 15 16 17 18 19 20 21 22 23 24 25
000
FTUS41 KAKQ 112300
TAFSBY
TAF
KSBY 112322Z 1200/1224 07004KT P6SM SCT020
     FM120400 00000KT 4SM BR SCT250
     FM120600 00000KT 2SM BR SCT003
      TEMPO 1207/1211 1/2SM FG VV003
     FM121300 16008KT P6SM SCT250=

USA.gov is the U.S. government's official web portal to all federal, state and local government web resources and services.